createdAt,value
2023-03-26T00:00:51.875Z,0
2023-03-26T00:01:52.487Z,0
2023-03-26T00:02:53.154Z,0
2023-03-26T00:03:53.691Z,0
2023-03-26T00:04:54.304Z,0
2023-03-26T00:05:55.145Z,0
2023-03-26T00:06:55.822Z,0
2023-03-26T00:07:56.412Z,0
2023-03-26T00:08:57.005Z,0
2023-03-26T00:09:57.604Z,0
2023-03-26T00:11:00.021Z,0
2023-03-26T00:11:58.817Z,0
2023-03-26T00:12:59.414Z,0
2023-03-26T00:14:00.006Z,0
2023-03-26T00:15:00.592Z,0
2023-03-26T00:16:01.216Z,0
2023-03-26T00:17:01.820Z,0
2023-03-26T00:18:02.455Z,0
2023-03-26T00:19:03.088Z,0
2023-03-26T00:20:03.622Z,0
2023-03-26T00:21:04.212Z,0
2023-03-26T00:22:04.944Z,0
2023-03-26T00:23:05.543Z,0
2023-03-26T00:24:06.161Z,0
2023-03-26T00:25:06.733Z,0
2023-03-26T00:26:07.312Z,0
2023-03-26T00:27:07.927Z,0
2023-03-26T00:28:08.542Z,0
2023-03-26T00:29:09.135Z,0
2023-03-26T00:30:09.731Z,0
2023-03-26T00:31:10.357Z,0
2023-03-26T00:32:10.933Z,0
2023-03-26T00:33:11.567Z,0
2023-03-26T00:34:12.123Z,0
2023-03-26T00:35:12.720Z,0
2023-03-26T00:36:13.371Z,0
2023-03-26T00:37:13.914Z,0
2023-03-26T00:38:14.513Z,0
2023-03-26T00:39:15.126Z,0
2023-03-26T00:40:15.755Z,0
2023-03-26T00:41:16.351Z,0
2023-03-26T00:42:16.942Z,0
2023-03-26T00:43:17.540Z,0
2023-03-26T00:44:18.133Z,0
2023-03-26T00:45:18.744Z,0
2023-03-26T00:46:19.446Z,0
2023-03-26T00:47:20.047Z,0
2023-03-26T00:48:21.709Z,0
2023-03-26T00:49:22.236Z,0
2023-03-26T00:50:22.819Z,0
2023-03-26T00:51:23.412Z,0
2023-03-26T00:52:24.026Z,0
2023-03-26T00:53:24.649Z,0
2023-03-26T00:54:25.230Z,0
2023-03-26T00:55:25.824Z,0
2023-03-26T00:56:26.416Z,0
2023-03-26T00:57:35.489Z,0
2023-03-26T00:58:27.650Z,0
2023-03-26T00:59:28.230Z,0
2023-03-26T01:00:28.823Z,0
2023-03-26T01:01:29.541Z,0
2023-03-26T01:02:30.167Z,0
2023-03-26T01:03:30.840Z,0
2023-03-26T01:04:31.894Z,0
2023-03-26T01:05:32.728Z,0
2023-03-26T01:06:33.315Z,0
2023-03-26T01:07:33.908Z,0
2023-03-26T01:08:34.502Z,0
2023-03-26T01:09:35.092Z,0
2023-03-26T01:10:35.707Z,0
2023-03-26T01:11:36.301Z,0
2023-03-26T01:12:36.898Z,0
2023-03-26T01:13:37.510Z,0
2023-03-26T01:14:38.097Z,0
2023-03-26T01:15:38.728Z,0
2023-03-26T01:16:39.312Z,0
2023-03-26T01:17:39.934Z,0
2023-03-26T01:18:40.499Z,0
2023-03-26T01:19:41.096Z,0
2023-03-26T01:20:41.685Z,0
2023-03-26T01:21:42.302Z,0
2023-03-26T01:22:42.892Z,0
2023-03-26T01:23:43.484Z,0
2023-03-26T01:24:44.078Z,0
2023-03-26T01:25:44.673Z,0
2023-03-26T01:26:45.260Z,0
2023-03-26T01:27:45.855Z,0
2023-03-26T01:28:46.455Z,0
2023-03-26T01:29:47.042Z,0
2023-03-26T01:30:47.634Z,0
2023-03-26T01:31:48.226Z,0
2023-03-26T01:32:48.893Z,0
2023-03-26T01:33:49.474Z,0
2023-03-26T01:34:50.063Z,0
2023-03-26T01:35:50.749Z,0
2023-03-26T01:36:51.314Z,0
2023-03-26T01:37:51.910Z,0
2023-03-26T01:38:52.503Z,0
2023-03-26T01:39:53.103Z,0
2023-03-26T01:40:53.690Z,0
2023-03-26T01:41:54.310Z,0
2023-03-26T01:42:54.874Z,0
2023-03-26T01:43:55.464Z,0
2023-03-26T01:44:56.057Z,0
2023-03-26T01:45:56.905Z,0
2023-03-26T01:46:57.590Z,0
2023-03-26T01:47:58.195Z,0
2023-03-26T01:48:58.757Z,0
2023-03-26T01:49:59.354Z,0
2023-03-26T01:50:59.939Z,0
2023-03-26T01:52:00.541Z,0
2023-03-26T01:53:01.143Z,0
2023-03-26T01:54:01.721Z,0
2023-03-26T01:55:02.311Z,0
2023-03-26T01:56:02.903Z,0
2023-03-26T01:57:03.549Z,0
2023-03-26T01:58:04.120Z,0
2023-03-26T01:59:04.728Z,0
2023-03-26T02:00:05.309Z,0
2023-03-26T02:01:05.921Z,0
2023-03-26T02:02:06.574Z,0
2023-03-26T02:03:07.327Z,0
2023-03-26T02:04:07.902Z,0
2023-03-26T02:05:08.496Z,0
2023-03-26T02:06:09.100Z,0
2023-03-26T02:07:09.688Z,0
2023-03-26T02:08:10.286Z,0
2023-03-26T02:09:10.898Z,0
2023-03-26T02:10:11.489Z,0
2023-03-26T02:11:12.083Z,0
2023-03-26T02:12:12.679Z,0
2023-03-26T02:13:13.299Z,0
2023-03-26T02:14:13.890Z,0
2023-03-26T02:15:14.486Z,0
2023-03-26T02:16:15.119Z,0
2023-03-26T02:17:15.669Z,0
2023-03-26T02:18:16.262Z,0
2023-03-26T02:19:16.879Z,0
2023-03-26T02:20:17.489Z,0
2023-03-26T02:21:18.083Z,0
2023-03-26T02:22:18.678Z,0
2023-03-26T02:23:19.264Z,0
2023-03-26T02:24:19.885Z,0
2023-03-26T02:25:20.494Z,0
2023-03-26T02:26:21.049Z,0
2023-03-26T02:27:21.642Z,0
2023-03-26T02:28:22.241Z,0
2023-03-26T02:29:22.828Z,0
2023-03-26T02:30:23.426Z,0
2023-03-26T02:31:24.027Z,0
2023-03-26T02:32:24.917Z,0
2023-03-26T02:33:26.197Z,0
2023-03-26T02:34:26.797Z,0
2023-03-26T02:35:27.452Z,0
2023-03-26T02:36:28.412Z,0
2023-03-26T02:37:29.130Z,0
2023-03-26T02:38:29.726Z,0
2023-03-26T02:39:30.319Z,0
2023-03-26T02:40:30.947Z,0
2023-03-26T02:41:31.506Z,0
2023-03-26T02:42:32.118Z,0
2023-03-26T02:43:32.710Z,0
2023-03-26T02:44:33.337Z,0
2023-03-26T02:45:33.935Z,0
2023-03-26T02:46:34.520Z,0
2023-03-26T02:47:35.179Z,0
2023-03-26T02:48:35.959Z,0
2023-03-26T02:49:36.555Z,0
2023-03-26T02:50:37.140Z,0
2023-03-26T02:51:37.744Z,0
2023-03-26T02:52:38.349Z,0
2023-03-26T02:53:38.945Z,0
2023-03-26T02:54:39.537Z,0
2023-03-26T02:55:40.129Z,0
2023-03-26T02:56:40.744Z,0
2023-03-26T02:57:41.325Z,0
2023-03-26T02:58:41.912Z,0
2023-03-26T02:59:42.508Z,0
2023-03-26T03:00:43.099Z,0
2023-03-26T03:01:43.694Z,0
2023-03-26T03:02:44.572Z,0
2023-03-26T03:03:45.194Z,0
2023-03-26T03:04:45.807Z,0
2023-03-26T03:05:46.400Z,0
2023-03-26T03:06:46.996Z,0
2023-03-26T03:07:47.588Z,0
2023-03-26T03:08:48.190Z,0
2023-03-26T03:09:48.797Z,0
2023-03-26T03:10:49.392Z,0
2023-03-26T03:11:49.984Z,0
2023-03-26T03:12:50.578Z,0
2023-03-26T03:13:51.170Z,0
2023-03-26T03:14:51.770Z,0
2023-03-26T03:15:52.527Z,0
2023-03-26T03:16:53.181Z,0
2023-03-26T03:17:53.781Z,0
2023-03-26T03:18:54.711Z,0
2023-03-26T03:19:55.561Z,0
2023-03-26T03:20:56.158Z,0
2023-03-26T03:21:56.751Z,0
2023-03-26T03:22:57.362Z,0
2023-03-26T03:23:59.925Z,0
2023-03-26T03:24:58.565Z,0
2023-03-26T03:25:59.156Z,0
2023-03-26T03:26:59.751Z,0
2023-03-26T03:28:00.362Z,0
2023-03-26T03:29:00.957Z,0
2023-03-26T03:30:01.554Z,0
2023-03-26T03:31:02.228Z,0
2023-03-26T03:32:02.785Z,0
2023-03-26T03:33:03.422Z,0
2023-03-26T03:34:04.062Z,0
2023-03-26T03:35:04.623Z,0
2023-03-26T03:36:05.222Z,0
2023-03-26T03:37:05.799Z,0
2023-03-26T03:38:06.391Z,0
2023-03-26T03:39:06.989Z,0
2023-03-26T03:40:07.580Z,0
2023-03-26T03:41:08.211Z,0
2023-03-26T03:42:08.786Z,0
2023-03-26T03:43:09.400Z,0
2023-03-26T03:44:09.996Z,0
2023-03-26T03:45:10.592Z,0
2023-03-26T03:46:11.221Z,0
2023-03-26T03:47:11.800Z,0
2023-03-26T03:48:12.398Z,0
2023-03-26T03:49:12.988Z,0
2023-03-26T03:50:13.604Z,0
2023-03-26T03:51:14.206Z,0
2023-03-26T03:52:14.789Z,0
2023-03-26T03:53:15.383Z,0
2023-03-26T03:54:15.974Z,0
2023-03-26T03:55:16.572Z,0
2023-03-26T03:56:17.163Z,0
2023-03-26T03:57:17.757Z,0
2023-03-26T03:58:18.351Z,0
2023-03-26T03:59:18.946Z,0
2023-03-26T04:00:19.538Z,0
2023-03-26T04:01:20.132Z,0
2023-03-26T04:02:20.763Z,0
2023-03-26T04:03:33.471Z,0
2023-03-26T04:04:21.983Z,0
2023-03-26T04:05:22.572Z,0
2023-03-26T04:06:23.135Z,0
2023-03-26T04:07:23.729Z,0
2023-03-26T04:08:24.322Z,0
2023-03-26T04:09:24.920Z,0
2023-03-26T04:10:25.531Z,0
2023-03-26T04:11:26.129Z,0
2023-03-26T04:12:26.719Z,0
2023-03-26T04:13:27.316Z,0
2023-03-26T04:14:27.910Z,0
2023-03-26T04:15:28.501Z,0
2023-03-26T04:16:29.158Z,0
2023-03-26T04:17:29.764Z,0
2023-03-26T04:18:30.395Z,0
2023-03-26T04:19:30.933Z,0
2023-03-26T04:20:31.526Z,0
2023-03-26T04:21:32.123Z,0
2023-03-26T04:22:32.715Z,0
2023-03-26T04:23:33.309Z,0
2023-03-26T04:24:33.903Z,0
2023-03-26T04:25:34.616Z,0
2023-03-26T04:26:35.213Z,0
2023-03-26T04:27:35.820Z,0
2023-03-26T04:28:36.419Z,0
2023-03-26T04:29:37.011Z,0
2023-03-26T04:30:37.628Z,0
2023-03-26T04:31:38.336Z,0
2023-03-26T04:32:38.977Z,0
2023-03-26T04:33:39.535Z,0
2023-03-26T04:34:40.145Z,0
2023-03-26T04:35:40.769Z,0
2023-03-26T04:36:41.335Z,0
2023-03-26T04:37:41.934Z,0
2023-03-26T04:38:42.545Z,0
2023-03-26T04:39:43.142Z,0
2023-03-26T04:40:43.738Z,0
2023-03-26T04:41:44.335Z,0
2023-03-26T04:42:44.930Z,0
2023-03-26T04:43:45.523Z,0
2023-03-26T04:44:46.118Z,0
2023-03-26T04:45:46.713Z,0
2023-03-26T04:46:47.364Z,0
2023-03-26T04:47:47.956Z,0
2023-03-26T04:48:48.525Z,0
2023-03-26T04:49:49.129Z,0
2023-03-26T04:50:49.738Z,0
2023-03-26T04:51:50.332Z,0
2023-03-26T04:52:50.950Z,0
2023-03-26T04:53:51.549Z,0
2023-03-26T04:54:52.145Z,0
2023-03-26T04:55:52.896Z,0
2023-03-26T04:56:53.760Z,0
2023-03-26T04:57:54.333Z,0
2023-03-26T04:58:54.928Z,0
2023-03-26T04:59:55.529Z,0
2023-03-26T05:00:56.144Z,0
2023-03-26T05:01:56.720Z,0
2023-03-26T05:02:57.381Z,0
2023-03-26T05:03:57.982Z,0
2023-03-26T05:04:58.546Z,0
2023-03-26T05:05:59.142Z,0
2023-03-26T05:06:59.753Z,0
2023-03-26T05:08:00.352Z,0
2023-03-26T05:09:00.951Z,0
2023-03-26T05:10:01.582Z,0
2023-03-26T05:11:02.163Z,0
2023-03-26T05:12:02.760Z,0
2023-03-26T05:13:03.366Z,0
2023-03-26T05:14:03.985Z,0
2023-03-26T05:15:04.574Z,0
2023-03-26T05:16:05.197Z,5
2023-03-26T05:17:05.766Z,5
2023-03-26T05:18:06.416Z,5
2023-03-26T05:19:06.977Z,5
2023-03-26T05:20:07.567Z,5
2023-03-26T05:21:08.162Z,5
2023-03-26T05:22:08.757Z,11
2023-03-26T05:23:09.357Z,11
2023-03-26T05:24:09.958Z,16
2023-03-26T05:25:10.575Z,16
2023-03-26T05:26:11.172Z,22
2023-03-26T05:27:11.792Z,22
2023-03-26T05:28:12.397Z,28
2023-03-26T05:29:12.989Z,33
2023-03-26T05:30:13.601Z,39
2023-03-26T05:31:14.186Z,45
2023-03-26T05:32:14.786Z,45
2023-03-26T05:33:15.445Z,50
2023-03-26T05:34:16.047Z,50
2023-03-26T05:35:16.670Z,50
2023-03-26T05:36:17.301Z,56
2023-03-26T05:37:17.881Z,56
2023-03-26T05:38:18.481Z,50
2023-03-26T05:39:19.098Z,50
2023-03-26T05:40:19.695Z,56
2023-03-26T05:41:20.294Z,56
2023-03-26T05:42:20.893Z,67
2023-03-26T05:43:21.494Z,73
2023-03-26T05:44:22.094Z,78
2023-03-26T05:45:22.696Z,73
2023-03-26T05:46:23.397Z,73
2023-03-26T05:47:23.997Z,78
2023-03-26T05:48:24.569Z,78
2023-03-26T05:49:25.177Z,67
2023-03-26T05:50:25.763Z,67
2023-03-26T05:51:26.367Z,67
2023-03-26T05:52:26.965Z,61
2023-03-26T05:53:27.582Z,67
2023-03-26T05:54:28.206Z,73
2023-03-26T05:55:28.801Z,90
2023-03-26T05:56:29.400Z,101
2023-03-26T05:57:30.000Z,95
2023-03-26T05:58:30.602Z,90
2023-03-26T05:59:31.237Z,95
2023-03-26T06:00:31.838Z,90
2023-03-26T06:01:32.437Z,84
2023-03-26T06:02:33.063Z,84
2023-03-26T06:03:33.798Z,95
2023-03-26T06:04:34.497Z,112
2023-03-26T06:05:35.135Z,123
2023-03-26T06:06:35.728Z,118
2023-03-26T06:07:36.325Z,106
2023-03-26T06:08:36.923Z,95
2023-03-26T06:09:37.522Z,95
2023-03-26T06:10:38.124Z,95
2023-03-26T06:11:38.722Z,101
2023-03-26T06:12:39.323Z,101
2023-03-26T06:13:39.938Z,112
2023-03-26T06:14:40.538Z,129
2023-03-26T06:15:41.182Z,151
2023-03-26T06:16:41.744Z,157
2023-03-26T06:17:42.368Z,146
2023-03-26T06:18:42.982Z,151
2023-03-26T06:19:43.546Z,174
2023-03-26T06:20:44.146Z,168
2023-03-26T06:21:44.746Z,157
2023-03-26T06:22:45.337Z,146
2023-03-26T06:23:45.937Z,135
2023-03-26T06:24:46.535Z,129
2023-03-26T06:25:47.153Z,140
2023-03-26T06:26:47.756Z,163
2023-03-26T06:27:48.367Z,174
2023-03-26T06:28:48.987Z,174
2023-03-26T06:29:49.583Z,163
2023-03-26T06:30:50.188Z,146
2023-03-26T06:31:50.780Z,135
2023-03-26T06:32:51.567Z,146
2023-03-26T06:33:52.151Z,157
2023-03-26T06:34:52.750Z,180
2023-03-26T06:35:53.421Z,213
2023-03-26T06:36:53.983Z,247
2023-03-26T06:37:54.598Z,292
2023-03-26T06:38:55.199Z,320
2023-03-26T06:39:55.798Z,337
2023-03-26T06:40:56.538Z,337
2023-03-26T06:41:57.312Z,298
2023-03-26T06:43:09.198Z,230
2023-03-26T06:43:58.543Z,191
2023-03-26T06:44:59.188Z,174
2023-03-26T06:45:59.788Z,168
2023-03-26T06:47:00.404Z,180
2023-03-26T06:48:01.064Z,202
2023-03-26T06:49:01.612Z,230
2023-03-26T06:50:02.224Z,253
2023-03-26T06:51:02.828Z,275
2023-03-26T06:52:03.450Z,292
2023-03-26T06:53:04.047Z,303
2023-03-26T06:54:04.662Z,320
2023-03-26T06:55:05.247Z,343
2023-03-26T06:56:08.468Z,360
2023-03-26T06:57:07.492Z,376
2023-03-26T06:58:08.078Z,382
2023-03-26T06:59:08.698Z,371
2023-03-26T07:00:09.303Z,320
2023-03-26T07:01:09.931Z,281
2023-03-26T07:02:10.515Z,264
2023-03-26T07:03:11.118Z,258
2023-03-26T07:04:11.769Z,236
2023-03-26T07:05:12.353Z,230
2023-03-26T07:06:12.954Z,241
2023-03-26T07:07:13.550Z,241
2023-03-26T07:08:14.153Z,208
2023-03-26T07:09:14.753Z,191
2023-03-26T07:10:15.355Z,191
2023-03-26T07:11:15.952Z,202
2023-03-26T07:12:16.557Z,191
2023-03-26T07:13:17.172Z,163
2023-03-26T07:14:17.767Z,135
2023-03-26T07:15:18.375Z,123
2023-03-26T07:16:18.994Z,112
2023-03-26T07:17:19.579Z,106
2023-03-26T07:18:20.200Z,106
2023-03-26T07:19:20.831Z,118
2023-03-26T07:20:21.447Z,140
2023-03-26T07:21:22.106Z,180
2023-03-26T07:22:22.706Z,213
2023-03-26T07:23:23.330Z,241
2023-03-26T07:24:23.933Z,236
2023-03-26T07:25:24.532Z,230
2023-03-26T07:26:25.153Z,236
2023-03-26T07:27:25.987Z,241
2023-03-26T07:28:26.725Z,247
2023-03-26T07:29:27.308Z,258
2023-03-26T07:30:27.914Z,264
2023-03-26T07:31:28.546Z,281
2023-03-26T07:32:29.144Z,303
2023-03-26T07:33:29.749Z,337
2023-03-26T07:34:30.352Z,326
2023-03-26T07:35:31.012Z,337
2023-03-26T07:36:31.577Z,354
2023-03-26T07:37:32.197Z,343
2023-03-26T07:38:32.792Z,320
2023-03-26T07:39:33.390Z,281
2023-03-26T07:40:33.994Z,247
2023-03-26T07:41:34.590Z,236
2023-03-26T07:42:35.196Z,247
2023-03-26T07:43:35.807Z,264
2023-03-26T07:44:36.407Z,286
2023-03-26T07:45:37.054Z,303
2023-03-26T07:46:37.629Z,315
2023-03-26T07:47:38.239Z,320
2023-03-26T07:48:38.830Z,326
2023-03-26T07:49:39.429Z,337
2023-03-26T07:50:40.030Z,337
2023-03-26T07:51:40.642Z,331
2023-03-26T07:52:41.227Z,354
2023-03-26T07:53:41.829Z,393
2023-03-26T07:54:42.433Z,405
2023-03-26T07:55:43.031Z,399
2023-03-26T07:56:43.730Z,416
2023-03-26T07:57:44.455Z,421
2023-03-26T07:58:45.035Z,405
2023-03-26T07:59:45.652Z,354
2023-03-26T08:00:46.262Z,281
2023-03-26T08:01:46.857Z,225
2023-03-26T08:02:47.499Z,185
2023-03-26T08:03:48.112Z,168
2023-03-26T08:04:48.749Z,163
2023-03-26T08:05:49.345Z,151
2023-03-26T08:06:49.971Z,140
2023-03-26T08:07:50.563Z,140
2023-03-26T08:08:51.159Z,151
2023-03-26T08:09:51.789Z,151
2023-03-26T08:10:52.623Z,157
2023-03-26T08:11:53.184Z,157
2023-03-26T08:12:53.584Z,163
2023-03-26T08:13:54.182Z,163
2023-03-26T08:14:54.785Z,174
2023-03-26T08:15:55.467Z,191
2023-03-26T08:16:56.018Z,213
2023-03-26T08:17:56.653Z,236
2023-03-26T08:18:57.232Z,258
2023-03-26T08:19:57.833Z,270
2023-03-26T08:20:58.469Z,275
2023-03-26T08:21:59.023Z,281
2023-03-26T08:22:59.623Z,298
2023-03-26T08:24:00.231Z,331
2023-03-26T08:25:00.841Z,365
2023-03-26T08:26:01.462Z,388
2023-03-26T08:27:02.060Z,405
2023-03-26T08:28:02.660Z,427
2023-03-26T08:29:03.264Z,450
2023-03-26T08:30:03.872Z,444
2023-03-26T08:31:04.478Z,416
2023-03-26T08:32:05.060Z,388
2023-03-26T08:33:05.722Z,376
2023-03-26T08:34:06.272Z,399
2023-03-26T08:35:06.913Z,433
2023-03-26T08:36:07.494Z,450
2023-03-26T08:37:08.082Z,450
2023-03-26T08:38:08.677Z,450
2023-03-26T08:39:09.280Z,438
2023-03-26T08:40:09.897Z,405
2023-03-26T08:41:10.515Z,376
2023-03-26T08:42:11.100Z,371
2023-03-26T08:43:11.714Z,371
2023-03-26T08:44:12.312Z,371
2023-03-26T08:45:12.914Z,360
2023-03-26T08:46:13.524Z,337
2023-03-26T08:47:14.112Z,320
2023-03-26T08:48:14.708Z,326
2023-03-26T08:49:15.308Z,354
2023-03-26T08:50:15.909Z,382
2023-03-26T08:51:16.526Z,433
2023-03-26T08:52:17.124Z,466
2023-03-26T08:53:17.725Z,466
2023-03-26T08:54:18.323Z,450
2023-03-26T08:55:18.922Z,438
2023-03-26T08:56:19.522Z,444
2023-03-26T08:57:20.122Z,478
2023-03-26T08:58:20.723Z,540
2023-03-26T08:59:21.346Z,607
2023-03-26T09:00:21.947Z,669
2023-03-26T09:01:22.658Z,720
2023-03-26T09:02:23.235Z,753
2023-03-26T09:03:24.010Z,753
2023-03-26T09:04:24.631Z,753
2023-03-26T09:05:25.242Z,748
2023-03-26T09:06:25.852Z,736
2023-03-26T09:07:26.432Z,725
2023-03-26T09:08:29.996Z,748
2023-03-26T09:09:28.624Z,748
2023-03-26T09:10:29.223Z,753
2023-03-26T09:11:29.823Z,759
2023-03-26T09:12:30.425Z,759
2023-03-26T09:13:31.022Z,753
2023-03-26T09:14:31.651Z,759
2023-03-26T09:15:32.249Z,765
2023-03-26T09:16:32.891Z,776
2023-03-26T09:17:33.491Z,804
2023-03-26T09:18:34.097Z,849
2023-03-26T09:19:34.684Z,933
2023-03-26T09:20:35.286Z,1096
2023-03-26T09:21:35.886Z,1102
2023-03-26T09:22:36.486Z,978
2023-03-26T09:23:37.084Z,916
2023-03-26T09:24:37.694Z,916
2023-03-26T09:25:38.291Z,916
2023-03-26T09:26:38.890Z,916
2023-03-26T09:27:39.490Z,911
2023-03-26T09:28:40.110Z,916
2023-03-26T09:29:40.706Z,933
2023-03-26T09:30:41.308Z,956
2023-03-26T09:31:41.994Z,995
2023-03-26T09:32:42.623Z,1046
2023-03-26T09:33:43.235Z,1102
2023-03-26T09:34:43.839Z,1170
2023-03-26T09:35:44.426Z,1243
2023-03-26T09:36:45.031Z,1333
2023-03-26T09:37:57.499Z,1417
2023-03-26T09:38:46.253Z,1777
2023-03-26T09:39:46.846Z,1603
2023-03-26T09:40:47.448Z,1569
2023-03-26T09:41:48.047Z,1743
2023-03-26T09:42:48.647Z,1783
2023-03-26T09:43:49.247Z,1783
2023-03-26T09:44:49.847Z,1693
2023-03-26T09:45:50.517Z,1501
2023-03-26T09:46:51.071Z,1411
2023-03-26T09:48:52.296Z,1423
2023-03-26T09:49:52.896Z,1333
2023-03-26T09:50:53.824Z,1248
2023-03-26T09:51:54.557Z,1175
2023-03-26T09:52:55.161Z,1113
2023-03-26T09:53:55.756Z,1057
2023-03-26T09:54:56.358Z,1035
2023-03-26T09:55:57.168Z,1023
2023-03-26T09:56:57.882Z,1035
2023-03-26T09:57:58.550Z,1023
2023-03-26T09:58:59.143Z,1012
2023-03-26T09:59:59.744Z,1012
2023-03-26T10:01:00.511Z,995
2023-03-26T10:02:01.013Z,945
2023-03-26T10:03:01.632Z,922
2023-03-26T10:04:02.226Z,922
2023-03-26T10:05:02.860Z,939
2023-03-26T10:06:03.432Z,967
2023-03-26T10:07:04.057Z,1018
2023-03-26T10:08:04.656Z,1080
2023-03-26T10:09:05.253Z,1209
2023-03-26T10:10:05.885Z,1366
2023-03-26T10:11:06.476Z,1541
2023-03-26T10:12:07.082Z,1456
2023-03-26T10:13:14.468Z,1473
2023-03-26T10:14:09.294Z,1451
2023-03-26T10:15:09.903Z,1406
2023-03-26T10:17:11.120Z,1327
2023-03-26T10:18:27.896Z,1293
2023-03-26T10:19:13.329Z,1271
2023-03-26T10:20:13.930Z,1293
2023-03-26T10:21:14.542Z,1321
2023-03-26T10:22:15.150Z,1344
2023-03-26T10:23:15.750Z,1361
2023-03-26T10:24:16.349Z,1383
2023-03-26T10:25:16.957Z,1423
2023-03-26T10:26:17.550Z,1479
2023-03-26T10:27:18.152Z,1513
2023-03-26T10:28:18.754Z,1552
2023-03-26T10:29:19.354Z,1569
2023-03-26T10:30:19.949Z,1591
2023-03-26T10:31:20.585Z,1597
2023-03-26T10:32:21.183Z,1580
2023-03-26T10:33:22.954Z,1580
2023-03-26T10:34:29.352Z,1591
2023-03-26T10:35:25.023Z,1558
2023-03-26T10:36:25.623Z,1580
2023-03-26T10:37:26.236Z,1597
2023-03-26T10:38:26.838Z,1642
2023-03-26T10:39:36.534Z,1704
2023-03-26T10:40:29.045Z,1794
2023-03-26T10:41:29.648Z,1732
2023-03-26T10:42:30.251Z,1777
2023-03-26T10:43:30.850Z,1811
2023-03-26T10:44:31.446Z,1878
2023-03-26T10:45:32.055Z,1867
2023-03-26T10:46:32.662Z,1901
2023-03-26T10:47:33.250Z,1895
2023-03-26T10:48:33.851Z,1895
2023-03-26T10:49:34.488Z,1805
2023-03-26T10:50:35.066Z,1828
2023-03-26T10:51:35.672Z,1760
2023-03-26T10:52:36.269Z,1738
2023-03-26T10:53:36.869Z,1704
2023-03-26T10:54:37.476Z,1693
2023-03-26T10:55:38.070Z,1676
2023-03-26T10:56:38.755Z,1659
2023-03-26T10:57:39.296Z,1603
2023-03-26T10:58:48.431Z,1518
2023-03-26T10:59:41.498Z,1445
2023-03-26T11:00:42.099Z,1417
2023-03-26T11:01:42.787Z,1423
2023-03-26T11:02:43.355Z,1417
2023-03-26T11:03:43.971Z,1423
2023-03-26T11:04:44.540Z,1434
2023-03-26T11:05:45.207Z,1445
2023-03-26T11:06:45.777Z,1468
2023-03-26T11:07:46.376Z,1462
2023-03-26T11:08:46.975Z,1355
2023-03-26T11:09:47.584Z,1333
2023-03-26T11:10:48.183Z,1338
2023-03-26T11:11:48.777Z,1355
2023-03-26T11:12:49.386Z,1400
2023-03-26T11:13:49.998Z,1473
2023-03-26T11:14:50.604Z,1445
2023-03-26T11:15:51.217Z,1395
2023-03-26T11:16:51.812Z,1355
2023-03-26T11:17:52.431Z,1321
2023-03-26T11:18:53.010Z,1288
2023-03-26T11:19:53.634Z,1226
2023-03-26T11:20:54.382Z,1141
2023-03-26T11:21:54.848Z,1074
2023-03-26T11:22:55.451Z,1018
2023-03-26T11:24:04.912Z,973
2023-03-26T11:24:57.640Z,916
2023-03-26T11:25:58.241Z,855
2023-03-26T11:27:15.439Z,821
2023-03-26T11:27:59.475Z,798
2023-03-26T11:29:03.995Z,787
2023-03-26T11:30:01.698Z,770
2023-03-26T11:31:02.331Z,781
2023-03-26T11:32:02.910Z,770
2023-03-26T11:33:03.536Z,759
2023-03-26T11:34:04.105Z,731
2023-03-26T11:35:04.724Z,697
2023-03-26T11:36:05.371Z,669
2023-03-26T11:37:05.959Z,652
2023-03-26T11:38:06.577Z,630
2023-03-26T11:39:07.177Z,613
2023-03-26T11:40:07.911Z,596
2023-03-26T11:41:08.524Z,596
2023-03-26T11:42:09.129Z,590
2023-03-26T11:43:09.754Z,596
2023-03-26T11:44:10.348Z,596
2023-03-26T11:45:10.944Z,590
2023-03-26T11:46:11.581Z,573
2023-03-26T11:47:12.206Z,551
2023-03-26T11:48:12.839Z,534
2023-03-26T11:49:13.439Z,511
2023-03-26T11:50:14.040Z,483
2023-03-26T11:51:14.635Z,455
2023-03-26T11:52:15.239Z,433
2023-03-26T11:53:15.834Z,410
2023-03-26T11:54:16.444Z,388
2023-03-26T11:55:17.025Z,376
2023-03-26T11:56:17.625Z,365
2023-03-26T11:57:18.246Z,360
2023-03-26T11:58:18.819Z,348
2023-03-26T11:59:21.249Z,337
2023-03-26T12:00:21.008Z,326
2023-03-26T12:01:21.622Z,309
2023-03-26T12:02:22.289Z,298
2023-03-26T12:03:22.969Z,281
2023-03-26T12:04:23.572Z,275
2023-03-26T12:05:24.157Z,270
2023-03-26T12:06:24.740Z,275
2023-03-26T12:07:25.340Z,281
2023-03-26T12:08:25.938Z,292
2023-03-26T12:09:26.537Z,303
2023-03-26T12:10:27.162Z,320
2023-03-26T12:11:27.749Z,337
2023-03-26T12:12:28.350Z,365
2023-03-26T12:13:28.950Z,393
2023-03-26T12:14:29.563Z,416
2023-03-26T12:15:30.167Z,438
2023-03-26T12:16:30.870Z,455
2023-03-26T12:17:31.964Z,478
2023-03-26T12:18:32.660Z,495
2023-03-26T12:19:33.260Z,517
2023-03-26T12:20:33.864Z,545
2023-03-26T12:21:34.484Z,568
2023-03-26T12:22:35.083Z,590
2023-03-26T12:23:35.681Z,607
2023-03-26T12:24:36.286Z,618
2023-03-26T12:25:36.883Z,641
2023-03-26T12:26:37.502Z,652
2023-03-26T12:27:38.088Z,658
2023-03-26T12:28:38.690Z,658
2023-03-26T12:29:39.289Z,663
2023-03-26T12:30:39.890Z,669
2023-03-26T12:31:40.513Z,686
2023-03-26T12:32:46.264Z,720
2023-03-26T12:33:42.686Z,753
2023-03-26T12:34:43.273Z,793
2023-03-26T12:35:43.908Z,826
2023-03-26T12:36:44.470Z,849
2023-03-26T12:37:45.066Z,860
2023-03-26T12:38:45.689Z,866
2023-03-26T12:40:10.039Z,866
2023-03-26T12:40:46.942Z,855
2023-03-26T12:44:44.760Z,832
2023-03-26T12:44:53.471Z,787
2023-03-26T12:44:55.667Z,810
2023-03-26T12:44:59.389Z,770
2023-03-26T12:47:46.141Z,770
2023-03-26T12:47:59.337Z,753
2023-03-26T12:48:03.088Z,742
2023-03-26T12:48:56.859Z,748
2023-03-26T12:49:57.477Z,736
2023-03-26T12:50:58.392Z,736
2023-03-26T12:51:59.134Z,736
2023-03-26T12:52:59.729Z,731
2023-03-26T12:54:00.327Z,731
2023-03-26T12:55:00.947Z,736
2023-03-26T12:56:01.567Z,742
2023-03-26T12:57:12.337Z,748
2023-03-26T12:58:13.837Z,759
2023-03-26T12:59:05.659Z,770
2023-03-26T13:00:06.169Z,793
2023-03-26T13:01:06.819Z,798
2023-03-26T13:02:07.403Z,798
2023-03-26T13:03:08.078Z,781
2023-03-26T13:04:08.600Z,742
2023-03-26T13:05:09.205Z,703
2023-03-26T13:06:09.798Z,675
2023-03-26T13:07:10.398Z,669
2023-03-26T13:08:10.997Z,652
2023-03-26T13:09:11.604Z,641
2023-03-26T13:10:12.230Z,624
2023-03-26T13:11:12.813Z,613
2023-03-26T13:12:13.416Z,596
2023-03-26T13:13:14.017Z,601
2023-03-26T13:14:14.613Z,618
2023-03-26T13:15:15.216Z,652
2023-03-26T13:16:15.807Z,691
2023-03-26T13:17:16.426Z,725
2023-03-26T13:18:17.034Z,753
2023-03-26T13:19:17.636Z,776
2023-03-26T13:20:18.226Z,804
2023-03-26T13:21:18.828Z,832
2023-03-26T13:22:19.455Z,855
2023-03-26T13:23:20.049Z,871
2023-03-26T13:24:20.651Z,894
2023-03-26T13:25:21.265Z,911
2023-03-26T13:26:21.863Z,905
2023-03-26T13:27:22.464Z,900
2023-03-26T13:28:23.063Z,883
2023-03-26T13:29:23.666Z,860
2023-03-26T13:30:24.277Z,821
2023-03-26T13:31:24.882Z,787
2023-03-26T13:32:25.477Z,748
2023-03-26T13:33:26.061Z,697
2023-03-26T13:34:26.661Z,669
2023-03-26T13:35:27.354Z,635
2023-03-26T13:36:27.969Z,607
2023-03-26T13:37:28.580Z,590
2023-03-26T13:38:29.186Z,556
2023-03-26T13:39:29.782Z,556
2023-03-26T13:40:30.397Z,551
2023-03-26T13:41:30.983Z,562
2023-03-26T13:42:31.582Z,601
2023-03-26T13:43:32.182Z,613
2023-03-26T13:44:32.782Z,630
2023-03-26T13:45:33.384Z,618
2023-03-26T13:46:34.045Z,618
2023-03-26T13:47:34.630Z,596
2023-03-26T13:48:35.212Z,596
2023-03-26T13:49:35.809Z,607
2023-03-26T13:50:36.428Z,585
2023-03-26T13:51:37.028Z,556
2023-03-26T13:52:37.624Z,523
2023-03-26T13:53:38.224Z,483
2023-03-26T13:54:38.826Z,472
2023-03-26T13:55:39.421Z,466
2023-03-26T13:56:42.085Z,466
2023-03-26T13:57:41.632Z,495
2023-03-26T13:58:42.218Z,556
2023-03-26T13:59:42.807Z,618
2023-03-26T14:00:43.414Z,669
2023-03-26T14:01:44.152Z,720
2023-03-26T14:02:44.749Z,742
2023-03-26T14:03:45.368Z,731
2023-03-26T14:04:45.936Z,714
2023-03-26T14:05:46.538Z,708
2023-03-26T14:06:47.146Z,675
2023-03-26T14:07:47.734Z,641
2023-03-26T14:08:48.339Z,607
2023-03-26T14:09:48.935Z,573
2023-03-26T14:10:49.534Z,523
2023-03-26T14:11:50.155Z,483
2023-03-26T14:12:50.759Z,450
2023-03-26T14:13:51.376Z,438
2023-03-26T14:14:51.998Z,461
2023-03-26T14:15:52.607Z,495
2023-03-26T14:16:53.175Z,528